createdAt,value
2022-09-14T00:00:33.759Z,1.40
2022-09-14T00:03:00.524Z,1.67
2022-09-14T00:07:53.733Z,1.80
2022-09-14T00:10:22.980Z,1.70
2022-09-14T00:12:49.441Z,1.67
2022-09-14T00:15:15.926Z,2.28
2022-09-14T00:17:42.503Z,2.03
2022-09-14T00:20:09.814Z,1.58
2022-09-14T00:22:36.701Z,1.73
2022-09-14T00:25:04.137Z,1.45
2022-09-14T00:27:30.624Z,1.95
2022-09-14T00:29:57.217Z,2.05
2022-09-14T00:32:23.958Z,1.80
2022-09-14T00:37:16.885Z,1.20
2022-09-14T00:39:43.935Z,1.35
2022-09-14T00:42:16.202Z,1.33
2022-09-14T00:44:42.946Z,1.40
2022-09-14T00:49:40.929Z,1.85
2022-09-14T00:52:20.373Z,1.48
2022-09-14T00:54:53.282Z,1.08
2022-09-14T00:57:21.335Z,1.50
2022-09-14T00:59:51.178Z,1.63
2022-09-14T01:02:19.643Z,1.75
2022-09-14T01:04:47.771Z,1.40
2022-09-14T01:07:33.838Z,1.58
2022-09-14T01:10:41.857Z,2.08
2022-09-14T01:13:26.231Z,1.75
2022-09-14T01:16:55.135Z,1.70
2022-09-14T01:19:58.017Z,1.10
2022-09-14T01:22:37.079Z,1.50
2022-09-14T01:25:18.650Z,1.60
2022-09-14T01:27:45.589Z,1.65
2022-09-14T01:30:22.737Z,1.50
2022-09-14T01:32:56.520Z,3.08
2022-09-14T01:35:34.230Z,1.08
2022-09-14T01:38:13.971Z,1.25
2022-09-14T01:40:45.044Z,1.35
2022-09-14T01:43:36.237Z,1.30
2022-09-14T01:46:10.532Z,1.60
2022-09-14T01:48:46.358Z,1.40
2022-09-14T01:51:20.249Z,1.63
2022-09-14T01:54:06.605Z,1.73
2022-09-14T01:56:39.912Z,1.52
2022-09-14T01:59:18.681Z,2.55
2022-09-14T02:01:50.623Z,1.23
2022-09-14T02:04:28.113Z,1.33
2022-09-14T02:06:56.590Z,1.27
2022-09-14T02:09:26.803Z,1.80
2022-09-14T02:11:55.743Z,1.50
2022-09-14T02:14:23.248Z,1.55
2022-09-14T02:16:49.771Z,1.40
2022-09-14T02:19:19.385Z,1.92
2022-09-14T02:21:49.755Z,1.55
2022-09-14T02:24:17.243Z,1.40
2022-09-14T02:26:43.840Z,1.45
2022-09-14T02:29:10.642Z,1.48
2022-09-14T02:34:27.941Z,1.55
2022-09-14T02:37:13.143Z,1.55
2022-09-14T02:40:34.027Z,1.75
2022-09-14T02:43:11.925Z,1.98
2022-09-14T02:45:54.209Z,2.75
2022-09-14T02:48:32.270Z,1.35
2022-09-14T02:51:08.995Z,1.55
2022-09-14T02:53:59.562Z,1.67
2022-09-14T02:56:28.358Z,1.33
2022-09-14T02:58:54.811Z,1.10
2022-09-14T03:01:23.237Z,1.83
2022-09-14T03:03:50.013Z,1.63
2022-09-14T03:08:43.582Z,1.75
2022-09-14T03:13:36.771Z,1.52
2022-09-14T03:16:12.638Z,1.77
2022-09-14T03:18:39.885Z,1.63
2022-09-14T03:21:08.723Z,1.60
2022-09-14T03:23:39.422Z,1.65
2022-09-14T03:26:15.656Z,1.30
2022-09-14T03:28:42.757Z,1.13
2022-09-14T03:31:11.040Z,1.50
2022-09-14T03:33:37.615Z,1.60
2022-09-14T03:36:30.879Z,1.90
2022-09-14T03:39:34.200Z,1.48
2022-09-14T03:42:16.752Z,1.67
2022-09-14T03:47:31.213Z,2.17
2022-09-14T03:50:00.804Z,2.10
2022-09-14T03:52:27.446Z,1.92
2022-09-14T03:54:53.988Z,1.58
2022-09-14T03:57:20.704Z,1.65
2022-09-14T04:02:13.880Z,1.33
2022-09-14T04:07:07.486Z,1.73
2022-09-14T04:09:34.470Z,2.13
2022-09-14T04:12:01.063Z,1.48
2022-09-14T04:14:27.836Z,2.20
2022-09-14T04:19:20.786Z,1.90
2022-09-14T04:21:47.309Z,2.20
2022-09-14T04:24:15.686Z,1.92
2022-09-14T04:26:44.192Z,1.83
2022-09-14T04:29:12.756Z,2.20
2022-09-14T04:31:39.464Z,2.60
2022-09-14T04:36:33.196Z,1.90
2022-09-14T04:39:02.169Z,2.20
2022-09-14T04:41:30.423Z,3.55
2022-09-14T04:43:57.399Z,1.98
2022-09-14T04:46:27.021Z,2.30
2022-09-14T04:48:53.814Z,2.15
2022-09-14T04:53:59.566Z,2.08
2022-09-14T04:56:31.006Z,1.88
2022-09-14T04:59:02.421Z,2.58
2022-09-14T05:01:32.624Z,1.95
2022-09-14T05:04:06.862Z,1.70
2022-09-14T05:06:55.960Z,2.28
2022-09-14T05:09:51.967Z,1.95
2022-09-14T05:12:27.837Z,2.80
2022-09-14T05:15:05.199Z,1.80
2022-09-14T05:20:10.655Z,2.00
2022-09-14T05:22:37.429Z,2.22
2022-09-14T05:44:37.542Z,1.75
2022-09-14T05:47:03.992Z,1.52
2022-09-14T05:49:30.538Z,1.73
2022-09-14T05:52:02.903Z,1.88
2022-09-14T06:19:29.628Z,1.80
2022-09-14T06:40:30.750Z,3.55
2022-09-14T06:53:08.484Z,1.92
2022-09-14T06:53:37.913Z,2.40
2022-09-14T07:02:35.533Z,2.25
2022-09-14T07:05:58.125Z,1.58
2022-09-14T07:08:58.569Z,2.03
2022-09-14T07:14:50.048Z,2.03
2022-09-14T07:17:16.723Z,1.70
2022-09-14T07:19:43.408Z,1.75
2022-09-14T07:22:09.958Z,1.77
2022-09-14T07:24:36.362Z,1.88
2022-09-14T07:27:11.902Z,1.70
2022-09-14T07:30:00.956Z,1.75
2022-09-14T07:32:27.647Z,2.15
2022-09-14T07:34:54.133Z,2.30
2022-09-14T07:37:20.556Z,2.33
2022-09-14T07:39:47.532Z,2.17
2022-09-14T07:42:14.302Z,1.75
2022-09-14T07:44:40.870Z,1.30
2022-09-14T07:47:07.308Z,1.92
2022-09-14T07:49:33.781Z,1.77
2022-09-14T07:52:00.350Z,1.85
2022-09-14T07:54:26.877Z,3.15
2022-09-14T07:56:53.497Z,2.03
2022-09-14T07:59:37.006Z,1.75
2022-09-14T08:02:07.532Z,2.25
2022-09-14T08:04:36.312Z,1.95
2022-09-14T08:07:03.587Z,2.10
2022-09-14T08:09:30.116Z,1.90
2022-09-14T08:11:57.149Z,2.05
2022-09-14T08:14:23.895Z,1.92
2022-09-14T08:19:20.499Z,2.00
2022-09-14T08:26:45.664Z,2.50
2022-09-14T08:29:13.819Z,1.88
2022-09-14T08:31:54.401Z,1.60
2022-09-14T08:35:07.143Z,2.15
2022-09-14T08:37:52.987Z,2.22
2022-09-14T08:40:28.279Z,1.88
2022-09-14T08:43:07.606Z,1.80
2022-09-14T08:45:34.295Z,2.10
2022-09-14T08:50:33.818Z,1.33
2022-09-14T08:53:02.183Z,1.70
2022-09-14T08:55:45.127Z,1.70
2022-09-14T08:58:20.623Z,1.48
2022-09-14T09:01:15.783Z,1.40
2022-09-14T09:04:09.774Z,2.10
2022-09-14T09:06:57.591Z,1.58
2022-09-14T09:09:37.790Z,2.05
2022-09-14T09:12:05.583Z,1.85
2022-09-14T09:14:44.179Z,1.95
2022-09-14T09:17:17.460Z,1.98
2022-09-14T09:20:09.048Z,1.77
2022-09-14T09:22:44.553Z,1.67
2022-09-14T09:25:20.508Z,2.05
2022-09-14T09:28:30.401Z,2.10
2022-09-14T09:31:12.643Z,1.98
2022-09-14T09:33:41.126Z,2.05
2022-09-14T09:36:12.898Z,2.25
2022-09-14T09:38:39.410Z,1.63
2022-09-14T09:41:32.909Z,1.77
2022-09-14T09:44:10.482Z,1.80
2022-09-14T09:46:48.373Z,1.75
2022-09-14T09:49:26.498Z,2.00
2022-09-14T09:51:53.666Z,2.20
2022-09-14T09:54:37.876Z,1.83
2022-09-14T09:57:25.114Z,1.77
2022-09-14T09:59:51.847Z,1.98
2022-09-14T10:05:10.160Z,1.65
2022-09-14T10:07:53.616Z,1.60
2022-09-14T10:10:29.901Z,1.83
2022-09-14T10:13:10.773Z,1.10
2022-09-14T10:15:37.525Z,1.55
2022-09-14T10:20:53.096Z,1.25
2022-09-14T10:23:19.658Z,1.60
2022-09-14T10:25:51.390Z,1.67
2022-09-14T10:28:28.446Z,1.52
2022-09-14T10:31:15.229Z,1.90
2022-09-14T10:33:42.642Z,1.98
2022-09-14T10:36:31.788Z,1.88
2022-09-14T10:39:54.144Z,2.42
2022-09-14T10:42:39.005Z,1.48
2022-09-14T10:45:08.599Z,1.80
2022-09-14T10:48:09.984Z,1.52
2022-09-14T10:51:31.665Z,1.77
2022-09-14T10:54:19.770Z,1.38
2022-09-14T10:57:06.096Z,1.40
2022-09-14T10:59:45.768Z,1.65
2022-09-14T11:02:32.485Z,1.40
2022-09-14T11:05:13.214Z,1.95
2022-09-14T11:08:06.525Z,1.85
2022-09-14T11:10:51.376Z,1.52
2022-09-14T11:13:30.780Z,1.35
2022-09-14T11:16:25.405Z,1.52
2022-09-14T11:19:22.767Z,2.17
2022-09-14T11:22:23.085Z,1.60
2022-09-14T11:24:56.413Z,1.90
2022-09-14T11:27:32.310Z,1.50
2022-09-14T11:30:20.910Z,1.40
2022-09-14T11:32:54.336Z,1.77
2022-09-14T11:35:37.914Z,1.13
2022-09-14T11:38:29.141Z,2.10
2022-09-14T11:41:23.646Z,1.52
2022-09-14T11:44:00.839Z,1.80
2022-09-14T11:46:34.743Z,2.42
2022-09-14T11:50:44.429Z,1.95
2022-09-14T11:53:36.391Z,1.90
2022-09-14T12:00:25.554Z,1.63
2022-09-14T12:30:00.605Z,1.88
2022-09-14T13:18:20.151Z,1.42
2022-09-14T13:21:02.857Z,1.73
2022-09-14T13:42:47.645Z,1.33
2022-09-14T14:00:43.949Z,1.77
2022-09-14T14:04:27.765Z,1.50
2022-09-14T14:07:21.200Z,1.40
2022-09-14T14:09:59.268Z,1.45
2022-09-14T14:12:33.674Z,2.05
2022-09-14T14:15:27.166Z,1.88
2022-09-14T14:17:54.570Z,1.30
2022-09-14T14:20:24.226Z,1.85
2022-09-14T14:23:20.790Z,1.50
2022-09-14T14:26:11.693Z,1.65
2022-09-14T14:29:10.047Z,1.35
2022-09-14T14:32:43.514Z,1.30
2022-09-14T14:35:20.163Z,1.55
2022-09-14T14:37:51.102Z,2.60
2022-09-14T14:40:28.891Z,1.55
2022-09-14T14:43:11.917Z,1.17
2022-09-14T14:45:41.055Z,1.30
2022-09-14T14:48:32.089Z,1.55
2022-09-14T14:54:41.211Z,1.80
2022-09-14T14:57:20.794Z,1.40
2022-09-14T14:59:53.258Z,1.35
2022-09-14T15:02:19.831Z,1.40
2022-09-14T15:04:46.725Z,1.77
2022-09-14T15:07:44.214Z,1.88
2022-09-14T15:10:15.295Z,1.30
2022-09-14T15:12:41.977Z,1.60
2022-09-14T15:15:20.313Z,1.70
2022-09-14T15:17:46.786Z,1.13
2022-09-14T15:20:14.477Z,1.88
2022-09-14T15:22:42.428Z,1.77
2022-09-14T15:28:23.754Z,1.73
2022-09-14T15:30:51.840Z,1.70
2022-09-14T15:33:19.681Z,2.00
2022-09-14T15:35:46.159Z,1.90
2022-09-14T15:38:15.609Z,1.95
2022-09-14T15:41:31.409Z,1.52
2022-09-14T15:43:58.086Z,1.80
2022-09-14T15:46:25.036Z,1.50
2022-09-14T15:48:51.461Z,1.48
2022-09-14T15:51:19.626Z,1.50
2022-09-14T15:53:46.429Z,1.67
2022-09-14T15:58:41.247Z,1.60
2022-09-14T16:01:14.997Z,2.38
2022-09-14T16:03:42.738Z,2.03
2022-09-14T16:06:11.456Z,1.60
2022-09-14T16:08:39.087Z,1.83
2022-09-14T16:11:07.198Z,1.58
2022-09-14T16:13:34.876Z,1.58
2022-09-14T16:16:07.206Z,1.52
2022-09-14T16:18:34.294Z,1.50
2022-09-14T16:21:11.663Z,1.63
2022-09-14T16:28:33.495Z,1.90
2022-09-14T16:31:08.459Z,2.00
2022-09-14T16:33:40.367Z,1.65
2022-09-14T16:36:09.494Z,1.42
2022-09-14T16:38:36.637Z,1.63
2022-09-14T16:41:06.274Z,1.55
2022-09-14T16:43:34.316Z,1.70
2022-09-14T16:46:10.618Z,2.13
2022-09-14T16:48:50.670Z,1.67
2022-09-14T16:55:13.338Z,1.98
2022-09-14T17:01:54.019Z,1.65
2022-09-14T17:04:22.389Z,1.70
2022-09-14T17:06:53.179Z,1.73
2022-09-14T17:09:24.161Z,1.50
2022-09-14T17:11:53.704Z,1.33
2022-09-14T17:14:27.440Z,1.50
2022-09-14T17:16:54.769Z,1.77
2022-09-14T17:19:21.713Z,1.92
2022-09-14T17:21:48.839Z,1.80
2022-09-14T17:24:21.901Z,1.58
2022-09-14T17:26:48.988Z,1.70
2022-09-14T17:29:15.889Z,1.73
2022-09-14T17:31:43.831Z,2.35
2022-09-14T17:34:14.203Z,1.33
2022-09-14T17:36:40.855Z,1.85
2022-09-14T17:39:11.615Z,1.83
2022-09-14T17:41:56.941Z,1.90
2022-09-14T17:44:26.088Z,1.70
2022-09-14T17:46:55.219Z,3.00
2022-09-14T17:49:23.268Z,2.33
2022-09-14T17:51:53.083Z,1.88
2022-09-14T17:54:28.448Z,2.00
2022-09-14T17:56:55.351Z,2.05
2022-09-14T17:59:22.701Z,2.05
2022-09-14T18:01:50.284Z,2.15
2022-09-14T18:04:18.056Z,2.15
2022-09-14T18:06:49.839Z,2.83
2022-09-14T18:09:25.814Z,2.05
2022-09-14T18:11:56.383Z,2.13
2022-09-14T18:14:58.333Z,2.20
2022-09-14T18:17:25.136Z,1.58
2022-09-14T18:22:26.224Z,2.03
2022-09-14T18:24:53.015Z,2.15
2022-09-14T18:30:34.842Z,2.28
2022-09-14T18:36:46.639Z,2.42
2022-09-14T18:39:53.105Z,2.22
2022-09-14T18:43:23.661Z,2.13
2022-09-14T21:04:36.611Z,3.28
2022-09-14T21:07:03.391Z,3.00
2022-09-14T21:11:56.613Z,2.88
2022-09-14T21:14:23.513Z,2.60
2022-09-14T21:16:55.135Z,3.47
2022-09-14T21:19:27.035Z,3.15
2022-09-14T21:21:58.262Z,2.90
2022-09-14T21:25:05.928Z,3.25
2022-09-14T21:27:32.630Z,2.83
2022-09-14T21:30:06.166Z,2.90
2022-09-14T21:32:35.059Z,3.45
2022-09-14T21:42:10.651Z,3.28
2022-09-14T21:44:38.051Z,3.67
2022-09-14T21:47:51.678Z,3.20
2022-09-14T21:50:24.021Z,3.58
2022-09-14T21:53:11.468Z,4.28
2022-09-14T21:55:39.109Z,3.45
2022-09-14T21:58:34.832Z,4.03
2022-09-14T22:01:10.937Z,4.72
2022-09-14T22:03:43.174Z,3.92
2022-09-14T22:06:21.857Z,4.07
2022-09-14T22:09:01.696Z,4.47
2022-09-14T22:11:57.865Z,3.03
2022-09-14T22:15:08.706Z,3.25
2022-09-14T22:17:41.156Z,3.38
2022-09-14T22:20:16.867Z,3.28
2022-09-14T22:22:47.457Z,3.17
2022-09-14T22:25:28.244Z,2.90
2022-09-14T22:27:57.670Z,2.65
2022-09-14T22:34:12.740Z,2.75
2022-09-14T22:36:40.453Z,3.17
2022-09-14T22:39:11.151Z,2.65
2022-09-14T22:41:38.823Z,2.53
2022-09-14T22:44:09.882Z,2.78
2022-09-14T22:46:50.501Z,2.50
2022-09-14T22:49:30.954Z,2.85
2022-09-14T22:52:00.703Z,2.97
2022-09-14T22:54:35.373Z,2.55
2022-09-14T22:57:20.334Z,3.20
2022-09-14T22:59:58.715Z,3.67
2022-09-14T23:02:29.972Z,2.67
2022-09-14T23:04:56.710Z,2.55
2022-09-14T23:07:23.623Z,2.95
2022-09-14T23:09:53.164Z,3.25
2022-09-14T23:12:19.707Z,2.85
2022-09-14T23:14:46.192Z,2.50
2022-09-14T23:17:13.099Z,2.50
2022-09-14T23:19:39.640Z,2.65
2022-09-14T23:22:06.173Z,3.10
2022-09-14T23:24:32.745Z,2.92
2022-09-14T23:26:59.236Z,2.67
2022-09-14T23:29:25.844Z,2.90
2022-09-14T23:31:52.409Z,2.60
2022-09-14T23:34:18.928Z,2.53
2022-09-14T23:36:45.576Z,2.58
2022-09-14T23:41:39.299Z,3.00
2022-09-14T23:44:05.824Z,2.80
2022-09-14T23:46:32.474Z,2.85
2022-09-14T23:48:58.989Z,2.75
2022-09-14T23:51:25.672Z,2.50
2022-09-14T23:56:18.655Z,3.13
2022-09-14T23:58:45.926Z,2.95
